Time;durP1;ratioP1;P1;durP2;ratioP2;P2;SDS_P1;SDS_P2;PMS_P1;PMS_P2;Temp;Humidity;BMP_temperature;BMP_pressure;BME280_temperature;BME280_humidity;BME280_pressure;Samples;Min_cycle;Max_cycle;Signal;HPM_P1;HPM_P2
2022/01/11 00:02:08;;;;;;;26.93;10.13;;;6.10;81.80;;;;;;5007386;28;20193;-75
2022/01/11 00:04:37;;;;;;;20.67;9.57;;;6.10;81.60;;;;;;5006482;28;20287;-74
2022/01/11 00:07:09;;;;;;;21.60;10.33;;;6.10;81.60;;;;;;5008141;28;20229;-74
2022/01/11 00:09:41;;;;;;;23.63;9.83;;;6.00;81.70;;;;;;5011266;28;20251;-73
2022/01/11 00:12:10;;;;;;;22.47;10.30;;;6.00;81.90;;;;;;5007907;28;20197;-74
2022/01/11 00:14:39;;;;;;;21.67;9.70;;;6.00;81.80;;;;;;5005838;28;20192;-74
2022/01/11 00:17:07;;;;;;;22.73;10.00;;;6.00;81.90;;;;;;5007458;28;20193;-74
2022/01/11 00:19:36;;;;;;;22.30;10.07;;;6.00;82.00;;;;;;5007464;28;20194;-74
2022/01/11 00:22:15;;;;;;;20.70;9.93;;;6.00;81.90;;;;;;5003062;28;20598;-73
2022/01/11 00:24:42;;;;;;;22.10;10.23;;;5.90;81.60;;;;;;4999495;28;20192;-74
2022/01/11 00:27:12;;;;;;;24.23;10.40;;;5.90;81.60;;;;;;5005143;28;20227;-74
2022/01/11 00:29:42;;;;;;;22.97;9.73;;;5.90;81.70;;;;;;5004913;28;20251;-74
2022/01/11 00:32:15;;;;;;;21.10;10.20;;;5.80;81.60;;;;;;5000310;28;20201;-74
2022/01/11 00:34:50;;;;;;;22.80;9.30;;;5.80;81.60;;;;;;5005470;28;20196;-75
2022/01/11 00:37:21;;;;;;;22.27;10.30;;;5.80;81.90;;;;;;5005254;28;20193;-74
2022/01/11 00:39:50;;;;;;;24.07;10.67;;;5.70;82.10;;;;;;5004499;28;20938;-74
2022/01/11 00:42:21;;;;;;;27.00;10.50;;;5.70;82.20;;;;;;5002616;28;20332;-74
2022/01/11 00:44:50;;;;;;;20.87;9.33;;;5.70;82.40;;;;;;5000588;28;20207;-73
2022/01/11 00:47:18;;;;;;;21.27;9.67;;;5.70;82.30;;;;;;5002709;28;20883;-74
2022/01/11 00:49:50;;;;;;;26.10;10.47;;;5.70;82.20;;;;;;4998547;28;20197;-74
2022/01/11 00:52:19;;;;;;;23.93;9.70;;;5.60;82.20;;;;;;5002173;28;21276;-76
2022/01/11 00:54:48;;;;;;;24.67;10.10;;;5.60;82.30;;;;;;5004183;28;20839;-74
2022/01/11 00:57:16;;;;;;;22.50;10.00;;;5.50;82.50;;;;;;5005879;28;20195;-73
2022/01/11 00:59:44;;;;;;;21.13;10.27;;;5.50;82.40;;;;;;5005687;28;20191;-74
2022/01/11 01:02:13;;;;;;;20.90;9.30;;;5.40;82.30;;;;;;5001432;28;20192;-74
2022/01/11 01:04:41;;;;;;;22.03;10.43;;;5.40;82.60;;;;;;5000364;28;20192;-74
2022/01/11 01:07:10;;;;;;;24.10;10.00;;;5.40;82.60;;;;;;5002805;28;20224;-74
2022/01/11 01:09:49;;;;;;;22.80;10.00;;;5.40;82.70;;;;;;5001615;28;20579;-74
2022/01/11 01:12:17;;;;;;;20.17;9.20;;;5.40;82.90;;;;;;5002269;28;20629;-74
2022/01/11 01:14:46;;;;;;;22.17;10.27;;;5.40;82.80;;;;;;5000044;28;20196;-74
2022/01/11 01:17:14;;;;;;;23.03;10.13;;;5.40;83.00;;;;;;5003398;28;20201;-76
2022/01/11 01:19:42;;;;;;;23.90;10.40;;;5.40;83.20;;;;;;4999695;28;20199;-74
2022/01/11 01:22:11;;;;;;;22.03;9.87;;;5.40;83.30;;;;;;4999945;28;20203;-74
2022/01/11 01:24:40;;;;;;;21.97;9.03;;;5.40;83.30;;;;;;4996529;28;20196;-73
2022/01/11 01:27:09;;;;;;;20.87;9.60;;;5.30;83.10;;;;;;4997918;28;20216;-74
2022/01/11 01:29:38;;;;;;;18.97;9.13;;;5.30;83.10;;;;;;5002786;28;20201;-74
2022/01/11 01:32:07;;;;;;;20.40;8.73;;;5.20;82.90;;;;;;5001548;28;20208;-74
2022/01/11 01:34:36;;;;;;;19.60;9.23;;;5.30;83.00;;;;;;5001653;28;20790;-74
2022/01/11 01:37:07;;;;;;;20.70;9.93;;;5.20;83.10;;;;;;5000876;28;20201;-74
2022/01/11 01:39:36;;;;;;;22.13;9.63;;;5.30;82.90;;;;;;5003191;28;20203;-74
2022/01/11 01:42:08;;;;;;;20.77;8.77;;;5.30;83.10;;;;;;4998209;28;20193;-73
2022/01/11 01:44:36;;;;;;;17.43;8.20;;;5.30;82.90;;;;;;5004181;28;20196;-74
2022/01/11 01:47:05;;;;;;;19.90;9.07;;;5.20;83.00;;;;;;5001597;28;20246;-75
2022/01/11 01:49:35;;;;;;;22.10;9.47;;;5.20;82.90;;;;;;4996480;28;20199;-73
2022/01/11 01:52:05;;;;;;;19.13;8.33;;;5.30;83.30;;;;;;5002849;28;20200;-72
2022/01/11 01:54:33;;;;;;;18.13;8.33;;;5.20;82.70;;;;;;4995059;28;20197;-75
2022/01/11 01:57:02;;;;;;;19.73;8.57;;;5.30;82.90;;;;;;4994994;28;20204;-75
2022/01/11 01:59:32;;;;;;;18.20;8.73;;;5.30;82.60;;;;;;5005260;28;20196;-74
2022/01/11 02:02:00;;;;;;;24.83;9.63;;;5.30;82.50;;;;;;5002899;28;20285;-73
2022/01/11 02:04:29;;;;;;;18.53;8.27;;;5.30;82.50;;;;;;4997888;28;20283;-73
2022/01/11 02:06:58;;;;;;;18.03;8.67;;;5.30;82.30;;;;;;5003556;28;20224;-73
2022/01/11 02:09:26;;;;;;;22.27;9.03;;;5.30;82.60;;;;;;4999052;28;20866;-74
2022/01/11 02:11:54;;;;;;;22.53;10.30;;;5.20;82.40;;;;;;5001788;28;20632;-73
2022/01/11 02:14:23;;;;;;;22.07;9.50;;;5.20;82.60;;;;;;4999483;28;20204;-73
2022/01/11 02:16:52;;;;;;;18.63;8.53;;;5.20;82.70;;;;;;5002570;28;20192;-73
2022/01/11 02:19:21;;;;;;;16.93;7.77;;;5.20;82.60;;;;;;5001472;28;20192;-74
2022/01/11 02:21:50;;;;;;;23.17;9.70;;;5.30;82.60;;;;;;5002973;28;20189;-74
2022/01/11 02:24:19;;;;;;;20.33;8.50;;;5.20;82.50;;;;;;4999179;28;20204;-78
2022/01/11 02:26:47;;;;;;;21.40;9.80;;;5.20;82.50;;;;;;4993867;28;20267;-73
2022/01/11 02:29:15;;;;;;;20.03;9.03;;;5.20;82.30;;;;;;4992924;28;20651;-73
2022/01/11 02:31:43;;;;;;;20.73;9.47;;;5.20;82.50;;;;;;4998351;28;20197;-75
2022/01/11 02:34:12;;;;;;;18.97;8.53;;;5.20;82.40;;;;;;5000098;28;20201;-74
2022/01/11 02:36:41;;;;;;;20.33;9.03;;;5.20;82.00;;;;;;4997782;28;20201;-73
2022/01/11 02:39:10;;;;;;;18.20;8.77;;;5.20;82.20;;;;;;5002679;28;20302;-74
2022/01/11 02:41:50;;;;;;;22.97;9.40;;;5.20;82.00;;;;;;4995337;28;20196;-73
2022/01/11 02:44:20;;;;;;;19.97;9.33;;;5.20;81.60;;;;;;4997551;28;20200;-73
2022/01/11 02:46:48;;;;;;;18.23;8.90;;;5.20;81.60;;;;;;5001499;28;20188;-74
2022/01/11 02:49:16;;;;;;;17.83;9.23;;;5.20;81.70;;;;;;5000844;28;20250;-73
2022/01/11 02:51:45;;;;;;;21.40;9.17;;;5.10;81.50;;;;;;4999329;28;20188;-74
2022/01/11 02:54:15;;;;;;;20.20;9.17;;;5.20;81.70;;;;;;5001273;28;20207;-73
2022/01/11 02:56:43;;;;;;;17.17;8.27;;;5.20;81.50;;;;;;4992637;28;20193;-74
2022/01/11 02:59:12;;;;;;;17.97;8.60;;;5.10;81.30;;;;;;4994927;28;20761;-74
2022/01/11 03:01:40;;;;;;;21.17;9.33;;;5.10;81.00;;;;;;4999973;28;20200;-74
2022/01/11 03:04:09;;;;;;;20.27;8.37;;;5.10;81.00;;;;;;4998666;28;20197;-74
2022/01/11 03:06:37;;;;;;;19.90;8.83;;;5.10;81.10;;;;;;5002895;28;20195;-74
2022/01/11 03:09:06;;;;;;;21.17;8.97;;;5.10;81.10;;;;;;5000757;28;20765;-74
2022/01/11 03:11:35;;;;;;;18.33;8.53;;;5.10;81.00;;;;;;5003658;28;20985;-74
2022/01/11 03:14:04;;;;;;;17.43;8.27;;;5.10;81.00;;;;;;4998779;28;20196;-74
2022/01/11 03:16:33;;;;;;;18.73;8.67;;;5.10;81.20;;;;;;5000473;28;20203;-74
2022/01/11 03:19:01;;;;;;;16.13;8.40;;;5.10;81.00;;;;;;4998189;28;20219;-73
2022/01/11 03:21:30;;;;;;;18.97;9.20;;;5.10;81.10;;;;;;4999812;28;20208;-75
2022/01/11 03:23:59;;;;;;;16.33;8.33;;;5.10;80.80;;;;;;5000245;28;20200;-73
2022/01/11 03:26:27;;;;;;;25.30;9.70;;;5.10;80.50;;;;;;5002828;28;20193;-73
2022/01/11 03:28:57;;;;;;;19.77;10.07;;;5.10;80.70;;;;;;4999149;28;20228;-75
2022/01/11 03:31:25;;;;;;;23.30;9.37;;;5.10;80.70;;;;;;5002136;28;20247;-74
2022/01/11 03:33:53;;;;;;;19.67;8.90;;;5.10;80.70;;;;;;5000948;28;20227;-72
2022/01/11 03:36:22;;;;;;;18.60;8.83;;;5.10;80.70;;;;;;5001611;28;20859;-73
2022/01/11 03:38:50;;;;;;;19.63;8.80;;;5.10;80.40;;;;;;4999089;28;20207;-73
2022/01/11 03:41:18;;;;;;;19.77;9.37;;;5.10;80.30;;;;;;5002406;28;20282;-74
2022/01/11 03:43:46;;;;;;;20.23;8.77;;;5.10;80.40;;;;;;5001976;28;20205;-74
2022/01/11 03:46:17;;;;;;;21.57;9.47;;;5.10;80.40;;;;;;5003270;28;20191;-74
2022/01/11 03:48:45;;;;;;;19.17;9.43;;;5.10;80.10;;;;;;5001798;28;20848;-74
2022/01/11 03:51:14;;;;;;;22.07;9.87;;;5.10;80.40;;;;;;5000107;28;20200;-74
2022/01/11 03:53:53;;;;;;;18.47;9.03;;;5.10;80.40;;;;;;5003192;28;20334;-75
2022/01/11 03:56:26;;;;;;;21.00;9.73;;;5.10;80.40;;;;;;5002355;28;20193;-73
2022/01/11 03:58:55;;;;;;;21.50;10.07;;;5.10;80.20;;;;;;5001203;28;20832;-74
2022/01/11 04:01:25;;;;;;;19.10;9.87;;;5.00;80.40;;;;;;5001845;28;20946;-73
2022/01/11 04:03:53;;;;;;;26.23;10.03;;;5.00;80.40;;;;;;5002325;28;20225;-73
2022/01/11 04:06:22;;;;;;;21.27;9.70;;;5.00;80.50;;;;;;5001594;28;20197;-75
2022/01/11 04:08:50;;;;;;;18.07;9.03;;;5.00;80.50;;;;;;5001298;28;20216;-75
2022/01/11 04:11:18;;;;;;;18.50;9.87;;;5.00;80.70;;;;;;5000577;28;20221;-74
2022/01/11 04:13:48;;;;;;;18.13;8.97;;;5.00;80.50;;;;;;5001025;28;20197;-74
2022/01/11 04:16:17;;;;;;;20.03;10.17;;;5.00;80.40;;;;;;5002099;28;20207;-74
2022/01/11 04:18:47;;;;;;;21.30;9.73;;;4.90;80.50;;;;;;5001259;28;20209;-74
2022/01/11 04:21:15;;;;;;;22.33;9.90;;;4.90;80.40;;;;;;4999381;28;20212;-75
2022/01/11 04:23:43;;;;;;;19.10;9.83;;;4.90;80.40;;;;;;5001469;28;20207;-73
2022/01/11 04:26:12;;;;;;;23.67;10.70;;;4.90;80.50;;;;;;5002981;28;20203;-74
2022/01/11 04:28:40;;;;;;;19.23;10.43;;;5.00;80.80;;;;;;5004573;28;20220;-74
2022/01/11 04:31:09;;;;;;;18.23;9.33;;;4.90;80.60;;;;;;5002576;28;20200;-74
2022/01/11 04:33:42;;;;;;;20.17;9.63;;;4.90;80.60;;;;;;4998509;28;20738;-73
2022/01/11 04:36:13;;;;;;;23.83;10.00;;;4.90;80.40;;;;;;5004352;28;20202;-74
2022/01/11 04:38:41;;;;;;;20.33;9.63;;;4.90;80.50;;;;;;5004707;28;20199;-74
2022/01/11 04:41:10;;;;;;;21.63;10.60;;;4.90;80.70;;;;;;4999950;28;20195;-75
2022/01/11 04:43:38;;;;;;;20.80;9.90;;;4.80;80.30;;;;;;4991950;28;20965;-73
2022/01/11 04:46:07;;;;;;;21.90;10.37;;;4.90;80.50;;;;;;4997771;28;20744;-75
2022/01/11 04:48:35;;;;;;;22.30;10.00;;;4.90;80.70;;;;;;5003759;28;20220;-73
2022/01/11 04:51:05;;;;;;;21.23;9.90;;;4.90;80.70;;;;;;5005009;28;20212;-73
2022/01/11 04:53:35;;;;;;;25.97;10.80;;;4.80;80.40;;;;;;5000878;28;20282;-74
2022/01/11 04:56:04;;;;;;;22.23;10.97;;;4.80;80.60;;;;;;5004603;28;20209;-74
2022/01/11 04:58:32;;;;;;;26.17;10.77;;;4.80;80.80;;;;;;5000543;28;20251;-73
2022/01/11 05:01:01;;;;;;;25.27;10.27;;;4.80;80.80;;;;;;4993190;28;20192;-75
2022/01/11 05:03:29;;;;;;;23.77;10.60;;;4.90;80.90;;;;;;4991787;28;20192;-73
2022/01/11 05:05:58;;;;;;;23.27;11.63;;;4.90;80.90;;;;;;5005728;28;20212;-73
2022/01/11 05:08:26;;;;;;;23.63;10.83;;;4.90;80.80;;;;;;5001518;28;20200;-74
2022/01/11 05:10:56;;;;;;;24.77;12.05;;;4.90;80.80;;;;;;5000787;28;20529;-75
2022/01/11 05:13:24;;;;;;;20.80;10.27;;;4.90;80.90;;;;;;5001011;28;20193;-74
2022/01/11 05:15:53;;;;;;;20.07;10.03;;;4.90;81.30;;;;;;5003363;28;20200;-74
2022/01/11 05:18:21;;;;;;;20.83;10.83;;;4.90;81.40;;;;;;5004359;28;20192;-73
2022/01/11 05:20:49;;;;;;;24.20;10.20;;;4.90;81.60;;;;;;5003838;28;20204;-74
2022/01/11 05:23:18;;;;;;;21.13;10.33;;;4.80;81.40;;;;;;5003540;28;20204;-73
2022/01/11 05:25:46;;;;;;;18.37;10.07;;;4.80;81.40;;;;;;5004211;28;20200;-74
2022/01/11 05:28:16;;;;;;;19.23;9.73;;;4.80;81.60;;;;;;5002035;28;20694;-74
2022/01/11 05:30:44;;;;;;;24.70;10.00;;;4.80;81.40;;;;;;5000764;28;20220;-74
2022/01/11 05:33:13;;;;;;;19.30;9.47;;;4.80;81.90;;;;;;4998580;28;20216;-74
2022/01/11 05:35:41;;;;;;;19.23;9.30;;;4.80;81.80;;;;;;5000339;28;20254;-72
2022/01/11 05:38:10;;;;;;;18.07;9.37;;;4.80;81.60;;;;;;5002533;28;20217;-74
2022/01/11 05:40:39;;;;;;;18.73;8.53;;;4.70;81.70;;;;;;5003491;28;20203;-74
2022/01/11 05:43:07;;;;;;;19.43;8.63;;;4.70;81.60;;;;;;5001745;28;20201;-75
2022/01/11 05:45:37;;;;;;;17.27;8.67;;;4.70;81.70;;;;;;5001019;28;20196;-73
2022/01/11 05:48:06;;;;;;;22.90;9.63;;;4.70;81.50;;;;;;5001122;28;20669;-73
2022/01/11 05:50:35;;;;;;;22.10;8.77;;;4.70;81.50;;;;;;5001725;28;20216;-75
2022/01/11 05:53:03;;;;;;;21.83;8.63;;;4.70;81.40;;;;;;5003759;28;20204;-74
2022/01/11 05:55:32;;;;;;;22.40;9.13;;;4.70;81.30;;;;;;5002553;28;20205;-74
2022/01/11 05:58:01;;;;;;;17.93;9.03;;;4.70;81.20;;;;;;4997116;28;20196;-74
2022/01/11 06:00:30;;;;;;;23.27;9.07;;;4.70;81.30;;;;;;4999341;28;21112;-75
2022/01/11 06:02:59;;;;;;;18.47;8.30;;;4.70;81.60;;;;;;4999010;28;20207;-73
2022/01/11 06:05:28;;;;;;;23.80;10.77;;;4.70;81.30;;;;;;5004094;28;20271;-74
2022/01/11 06:07:57;;;;;;;15.93;8.07;;;4.70;81.30;;;;;;5002337;28;20196;-74
2022/01/11 06:10:25;;;;;;;18.77;9.70;;;4.70;81.10;;;;;;4991482;28;20219;-75
2022/01/11 06:12:54;;;;;;;20.63;10.40;;;4.70;81.30;;;;;;5003051;28;20185;-74
2022/01/11 06:15:22;;;;;;;19.37;9.47;;;4.70;81.40;;;;;;4999921;28;20250;-74
2022/01/11 06:17:51;;;;;;;17.13;8.67;;;4.60;81.40;;;;;;5003040;28;20703;-74
2022/01/11 06:20:21;;;;;;;19.50;8.50;;;4.60;81.40;;;;;;5003414;28;20196;-73
2022/01/11 06:22:49;;;;;;;18.00;8.77;;;4.60;81.30;;;;;;5000185;28;20611;-74
2022/01/11 06:25:17;;;;;;;18.37;8.53;;;4.60;81.50;;;;;;5003261;28;20223;-74
2022/01/11 06:27:46;;;;;;;18.53;9.10;;;4.60;81.60;;;;;;5002790;28;20251;-72
2022/01/11 06:30:16;;;;;;;19.47;9.17;;;4.60;81.40;;;;;;5003262;28;20216;-74
2022/01/11 06:32:46;;;;;;;16.57;8.27;;;4.60;81.60;;;;;;4992558;28;20212;-74
2022/01/11 06:35:15;;;;;;;23.63;10.27;;;4.60;81.60;;;;;;5002288;28;20201;-74
2022/01/11 06:37:46;;;;;;;17.40;8.30;;;4.60;81.70;;;;;;4999712;28;20188;-74
2022/01/11 06:40:17;;;;;;;17.80;8.20;;;4.60;81.40;;;;;;5004500;28;20199;-74
2022/01/11 06:42:46;;;;;;;16.53;7.67;;;4.60;81.40;;;;;;5004287;28;20807;-73
2022/01/11 06:45:16;;;;;;;18.47;8.00;;;4.60;81.40;;;;;;5005808;28;20219;-73
2022/01/11 06:47:44;;;;;;;19.43;8.53;;;4.50;81.20;;;;;;5003648;28;20232;-73
2022/01/11 06:50:13;;;;;;;17.23;8.13;;;4.60;81.40;;;;;;5001924;28;20270;-72
2022/01/11 06:52:42;;;;;;;20.47;8.90;;;4.60;81.60;;;;;;5003823;28;20247;-72
2022/01/11 06:55:13;;;;;;;16.03;7.97;;;4.60;81.90;;;;;;5003088;28;20700;-75
2022/01/11 06:57:41;;;;;;;19.20;8.27;;;4.60;81.40;;;;;;5002941;28;20204;-72
2022/01/11 07:00:11;;;;;;;16.80;7.60;;;4.60;81.10;;;;;;5004080;28;20195;-75
2022/01/11 07:02:40;;;;;;;13.07;6.57;;;4.60;81.50;;;;;;5003887;28;20200;-74
2022/01/11 07:05:09;;;;;;;15.83;7.10;;;4.70;81.30;;;;;;5003703;28;20250;-75
2022/01/11 07:07:37;;;;;;;17.37;8.07;;;4.70;81.30;;;;;;5003605;28;20246;-74
2022/01/11 07:10:06;;;;;;;17.77;8.53;;;4.70;81.20;;;;;;5001282;28;20329;-74
2022/01/11 07:12:36;;;;;;;15.37;8.13;;;4.70;81.00;;;;;;4980656;28;20602;-74
2022/01/11 07:15:05;;;;;;;17.50;7.57;;;4.80;81.00;;;;;;5001859;28;20205;-75
2022/01/11 07:17:34;;;;;;;16.10;7.57;;;4.80;81.00;;;;;;5003806;28;20191;-73
2022/01/11 07:20:03;;;;;;;17.40;7.13;;;4.90;80.70;;;;;;5002235;28;20187;-75
2022/01/11 07:22:33;;;;;;;15.83;7.30;;;4.90;80.50;;;;;;5003684;28;20208;-75
2022/01/11 07:25:01;;;;;;;12.83;6.87;;;4.90;80.40;;;;;;5003910;28;20224;-75
2022/01/11 07:27:31;;;;;;;19.80;8.87;;;4.90;80.40;;;;;;5006381;28;20195;-75
2022/01/11 07:30:02;;;;;;;13.30;7.17;;;5.00;80.10;;;;;;5004150;28;20204;-74
2022/01/11 07:32:31;;;;;;;14.67;6.73;;;5.00;79.70;;;;;;5006285;28;20188;-74
2022/01/11 07:34:59;;;;;;;14.53;6.70;;;5.10;80.00;;;;;;5002180;28;20192;-75
2022/01/11 07:37:28;;;;;;;11.23;5.83;;;5.10;79.40;;;;;;5003442;28;20196;-76
2022/01/11 07:39:56;;;;;;;13.37;6.67;;;5.10;79.50;;;;;;5000622;28;20197;-76
2022/01/11 07:42:25;;;;;;;15.10;6.47;;;5.20;79.40;;;;;;5002712;28;20196;-77
2022/01/11 07:44:54;;;;;;;15.67;7.27;;;5.20;79.40;;;;;;5003173;28;20193;-78
2022/01/11 07:47:23;;;;;;;13.87;6.20;;;5.30;79.70;;;;;;4995254;28;20276;-77
2022/01/11 07:49:52;;;;;;;14.30;7.00;;;5.30;79.10;;;;;;5000781;28;20275;-77
2022/01/11 07:52:21;;;;;;;13.07;6.37;;;5.40;79.30;;;;;;5002166;28;20204;-77
2022/01/11 07:54:49;;;;;;;14.27;6.40;;;5.50;79.20;;;;;;5004302;28;20703;-76
2022/01/11 07:57:18;;;;;;;13.43;6.57;;;5.60;79.10;;;;;;5003780;28;20200;-78
2022/01/11 07:59:46;;;;;;;12.43;6.07;;;5.60;78.70;;;;;;5002970;28;20204;-76
2022/01/11 08:02:24;;;;;;;14.30;7.13;;;5.70;78.30;;;;;;5001379;28;20657;-74
2022/01/11 08:04:54;;;;;;;14.50;6.37;;;5.90;79.10;;;;;;5002167;28;20189;-79
2022/01/11 08:07:22;;;;;;;11.83;6.07;;;5.90;77.40;;;;;;5004796;28;20655;-76
2022/01/11 08:09:51;;;;;;;13.00;6.67;;;6.00;76.90;;;;;;5006742;28;20227;-76
2022/01/11 08:12:19;;;;;;;14.33;6.30;;;6.10;76.80;;;;;;5005409;28;20232;-76
2022/01/11 08:14:48;;;;;;;11.10;6.00;;;6.20;76.90;;;;;;5007167;28;20193;-76
2022/01/11 08:17:17;;;;;;;16.70;6.70;;;6.30;76.80;;;;;;5005297;28;20189;-79
2022/01/11 08:19:47;;;;;;;13.43;6.07;;;6.20;75.80;;;;;;5006446;28;20221;-77
2022/01/11 08:22:15;;;;;;;12.60;6.00;;;6.30;76.20;;;;;;5005486;28;20208;-75
2022/01/11 08:24:44;;;;;;;15.37;6.93;;;6.30;76.60;;;;;;5006629;28;20226;-76
2022/01/11 08:27:14;;;;;;;13.83;6.80;;;6.40;76.30;;;;;;5003628;28;20277;-77
2022/01/11 08:29:43;;;;;;;14.33;6.60;;;6.40;77.50;;;;;;4991045;28;20194;-76
2022/01/11 08:32:12;;;;;;;12.97;6.40;;;6.50;77.00;;;;;;5006226;28;20209;-76
2022/01/11 08:34:40;;;;;;;12.50;6.50;;;6.50;76.10;;;;;;5006613;28;20197;-75
2022/01/11 08:37:10;;;;;;;16.25;8.07;;;6.60;76.10;;;;;;5004511;28;20444;-77
2022/01/11 08:39:38;;;;;;;13.03;6.47;;;6.60;76.30;;;;;;5004867;28;20862;-77
2022/01/11 08:42:12;;;;;;;13.90;6.93;;;6.60;76.10;;;;;;5005749;28;20198;-77
2022/01/11 08:44:40;;;;;;;16.90;6.63;;;6.70;76.40;;;;;;5006861;28;20192;-77
2022/01/11 08:47:09;;;;;;;13.93;6.67;;;6.70;76.00;;;;;;5005977;28;20202;-76
2022/01/11 08:49:37;;;;;;;12.97;6.57;;;6.70;76.10;;;;;;5005469;28;20198;-72
2022/01/11 08:52:07;;;;;;;11.63;6.27;;;6.70;75.20;;;;;;5005302;28;20225;-77
2022/01/11 08:54:36;;;;;;;11.83;5.50;;;6.80;75.40;;;;;;5005146;28;20192;-76
2022/01/11 08:57:05;;;;;;;15.50;7.00;;;6.80;74.90;;;;;;5006589;28;20201;-73
2022/01/11 08:59:34;;;;;;;12.53;5.73;;;6.80;74.60;;;;;;5005823;28;20668;-74
2022/01/11 09:02:04;;;;;;;11.77;5.77;;;6.80;74.90;;;;;;5004809;28;20206;-77
2022/01/11 09:04:33;;;;;;;12.67;6.27;;;6.90;75.10;;;;;;5004470;28;20273;-76
2022/01/11 09:07:02;;;;;;;11.13;6.00;;;6.90;75.40;;;;;;4997703;28;20201;-73
2022/01/11 09:09:32;;;;;;;11.33;5.93;;;7.00;74.40;;;;;;5004710;28;20888;-74
2022/01/11 09:12:03;;;;;;;13.77;6.60;;;6.90;74.10;;;;;;5005093;28;20226;-76
2022/01/11 09:14:33;;;;;;;12.23;6.10;;;7.00;74.30;;;;;;4998139;28;20292;-75
2022/01/11 09:17:03;;;;;;;11.80;5.50;;;7.00;74.10;;;;;;5004313;28;20199;-75
2022/01/11 09:19:31;;;;;;;12.03;5.97;;;7.00;74.10;;;;;;5004976;28;20262;-73
2022/01/11 09:22:01;;;;;;;10.40;5.20;;;7.00;74.80;;;;;;5004013;28;20228;-75
2022/01/11 09:24:36;;;;;;;11.53;5.47;;;7.00;74.00;;;;;;5004258;28;20211;-73
2022/01/11 09:27:07;;;;;;;11.07;5.50;;;7.10;73.70;;;;;;5003669;28;20206;-75
2022/01/11 09:29:37;;;;;;;11.00;5.47;;;7.10;73.50;;;;;;5005268;28;20193;-75
2022/01/11 09:32:07;;;;;;;8.10;4.87;;;7.20;74.10;;;;;;5001068;28;20683;-74
2022/01/11 09:34:37;;;;;;;12.70;5.33;;;7.20;73.80;;;;;;5006358;28;20213;-75
2022/01/11 09:37:06;;;;;;;9.93;5.37;;;7.20;73.40;;;;;;5003969;28;20200;-75
2022/01/11 09:39:36;;;;;;;12.60;6.03;;;7.20;73.30;;;;;;5005710;28;20557;-74
2022/01/11 09:42:08;;;;;;;12.53;5.53;;;7.20;73.30;;;;;;5007154;28;20713;-78
2022/01/11 09:44:38;;;;;;;9.17;5.33;;;7.20;73.40;;;;;;5005953;28;20191;-75
2022/01/11 09:47:08;;;;;;;9.67;5.20;;;7.20;73.50;;;;;;5003801;28;20203;-78
2022/01/11 09:49:37;;;;;;;10.37;4.97;;;7.30;73.00;;;;;;5005192;28;20716;-76
2022/01/11 09:52:07;;;;;;;8.43;4.77;;;7.30;73.30;;;;;;5004042;28;20223;-74
2022/01/11 09:54:37;;;;;;;9.20;4.83;;;7.40;73.40;;;;;;5004876;28;20182;-77
2022/01/11 09:57:07;;;;;;;8.07;5.00;;;7.50;73.10;;;;;;5005203;28;20190;-77
2022/01/11 09:59:35;;;;;;;10.10;5.13;;;7.40;73.00;;;;;;5005163;28;20749;-77
2022/01/11 10:02:05;;;;;;;10.17;5.27;;;7.50;73.40;;;;;;5003488;28;20228;-76
2022/01/11 10:04:35;;;;;;;9.07;4.90;;;7.60;73.60;;;;;;5005794;28;20229;-77
2022/01/11 10:07:06;;;;;;;11.03;4.90;;;7.60;71.80;;;;;;5003510;28;20198;-77
2022/01/11 10:09:43;;;;;;;10.07;4.73;;;7.60;72.10;;;;;;5004093;28;20191;-77
2022/01/11 10:12:15;;;;;;;11.60;5.03;;;7.70;72.40;;;;;;5003892;28;20610;-77
2022/01/11 10:14:49;;;;;;;8.57;4.70;;;7.80;72.60;;;;;;5000325;28;20194;-77
2022/01/11 10:17:19;;;;;;;10.37;5.53;;;7.80;72.50;;;;;;4990353;28;20250;-77
2022/01/11 10:19:50;;;;;;;12.27;5.93;;;7.90;71.80;;;;;;5002884;28;20237;-77
2022/01/11 10:22:20;;;;;;;10.17;5.23;;;7.90;72.10;;;;;;5002841;28;20188;-79
2022/01/11 10:24:50;;;;;;;9.17;4.90;;;7.90;71.90;;;;;;5003104;28;20653;-77
2022/01/11 10:27:23;;;;;;;10.53;5.13;;;7.90;71.40;;;;;;5004833;28;20206;-76
2022/01/11 10:29:53;;;;;;;10.43;5.30;;;7.90;71.50;;;;;;4970100;28;20850;-77
2022/01/11 10:32:25;;;;;;;9.93;5.37;;;8.00;72.20;;;;;;5003003;28;20208;-77
2022/01/11 10:34:56;;;;;;;9.70;5.30;;;8.10;72.30;;;;;;5000982;28;20193;-77
2022/01/11 10:37:34;;;;;;;9.70;5.17;;;8.20;72.30;;;;;;4999049;28;20210;-78
2022/01/11 10:40:09;;;;;;;11.63;5.77;;;8.20;71.40;;;;;;4994304;28;20195;-76
2022/01/11 10:42:45;;;;;;;9.17;5.53;;;8.30;71.50;;;;;;4994865;28;20187;-76
2022/01/11 10:45:15;;;;;;;11.83;5.70;;;8.30;71.10;;;;;;4996918;28;20192;-76
2022/01/11 10:47:46;;;;;;;11.07;5.67;;;8.30;70.40;;;;;;4998283;28;20297;-75
2022/01/11 10:50:19;;;;;;;12.07;5.70;;;8.30;70.50;;;;;;5003840;28;20189;-74
2022/01/11 10:52:48;;;;;;;9.93;5.57;;;8.40;70.70;;;;;;5003619;28;20730;-75
2022/01/11 10:55:20;;;;;;;14.00;6.20;;;8.40;70.70;;;;;;4997037;28;20201;-74
2022/01/11 10:57:53;;;;;;;11.17;6.13;;;8.40;70.90;;;;;;4996927;28;20203;-75
2022/01/11 11:00:24;;;;;;;11.73;5.97;;;8.40;71.10;;;;;;5004305;28;20199;-75
2022/01/11 11:02:56;;;;;;;13.93;6.97;;;8.40;71.30;;;;;;5001578;28;20196;-74
2022/01/11 11:05:29;;;;;;;12.23;6.30;;;8.50;70.80;;;;;;4986868;28;20257;-75
2022/01/11 11:08:04;;;;;;;11.33;5.90;;;8.50;71.20;;;;;;5004162;28;20180;-75
2022/01/11 11:10:45;;;;;;;12.23;5.97;;;8.50;70.50;;;;;;5001022;28;20250;-76
2022/01/11 11:13:24;;;;;;;13.20;6.40;;;8.50;70.20;;;;;;4998165;28;20226;-75
2022/01/11 11:15:55;;;;;;;13.00;6.50;;;8.50;70.30;;;;;;5001733;28;20180;-75
2022/01/11 11:18:29;;;;;;;14.60;8.07;;;8.40;69.50;;;;;;5002539;28;20424;-75
2022/01/11 11:21:11;;;;;;;16.30;6.50;;;8.40;70.30;;;;;;5003596;28;20180;-76
2022/01/11 11:23:40;;;;;;;11.00;6.17;;;8.40;70.50;;;;;;5003298;28;20185;-76
2022/01/11 11:26:11;;;;;;;14.83;7.50;;;8.40;70.70;;;;;;5000361;28;20257;-76
2022/01/11 11:28:41;;;;;;;11.03;6.77;;;8.30;70.60;;;;;;4995778;28;20565;-76
2022/01/11 11:31:09;;;;;;;14.17;7.07;;;8.30;70.60;;;;;;5002986;28;20192;-76
2022/01/11 11:33:38;;;;;;;14.60;7.80;;;8.30;71.10;;;;;;5002579;28;20219;-76
2022/01/11 11:36:08;;;;;;;14.77;7.50;;;8.30;71.00;;;;;;5004063;28;20261;-76
2022/01/11 11:38:44;;;;;;;17.27;7.37;;;8.30;71.00;;;;;;5007899;28;20189;-76
2022/01/11 11:41:14;;;;;;;14.50;7.20;;;8.30;71.40;;;;;;5006641;28;20188;-76
2022/01/11 11:43:44;;;;;;;13.30;6.97;;;8.40;71.30;;;;;;5005964;28;20207;-76
2022/01/11 11:46:12;;;;;;;15.10;7.20;;;8.40;71.00;;;;;;5005252;28;20200;-77
2022/01/11 11:48:41;;;;;;;14.93;7.17;;;8.40;70.60;;;;;;5007566;28;20196;-76
2022/01/11 11:51:14;;;;;;;15.17;7.90;;;8.40;70.60;;;;;;5004047;28;20654;-77
2022/01/11 11:53:42;;;;;;;13.73;6.73;;;8.40;70.20;;;;;;5005140;28;20560;-77
2022/01/11 11:56:21;;;;;;;12.33;6.80;;;8.20;70.40;;;;;;5005558;28;20254;-75
2022/01/11 11:58:54;;;;;;;14.57;7.00;;;8.20;70.90;;;;;;5007541;28;20182;-76
2022/01/11 12:01:42;;;;;;;11.90;6.63;;;8.20;71.00;;;;;;5006501;28;20184;-76
2022/01/11 12:04:13;;;;;;;16.33;7.30;;;8.20;70.50;;;;;;5006544;28;20309;-76
2022/01/11 12:06:42;;;;;;;13.17;6.70;;;8.30;70.40;;;;;;5006134;28;20181;-77
2022/01/11 12:09:12;;;;;;;14.23;7.47;;;8.20;70.60;;;;;;5005244;28;20203;-77
2022/01/11 12:11:44;;;;;;;13.17;6.53;;;8.10;69.90;;;;;;5006017;28;20234;-77
2022/01/11 12:14:32;;;;;;;14.77;6.83;;;8.10;69.80;;;;;;5002453;28;20212;-77
2022/01/11 12:17:24;;;;;;;15.48;7.45;;;8.10;70.60;;;;;;4999194;28;20519;-77
2022/01/11 12:19:53;;;;;;;14.50;7.00;;;8.10;70.20;;;;;;4999442;28;20185;-76
2022/01/11 12:22:24;;;;;;;12.90;7.70;;;8.10;70.30;;;;;;5007209;28;20225;-77
2022/01/11 12:24:55;;;;;;;12.10;6.97;;;8.10;70.00;;;;;;5006882;28;20962;-77
2022/01/11 12:27:25;;;;;;;12.63;6.90;;;8.20;70.00;;;;;;5006245;28;20200;-76
2022/01/11 12:29:58;;;;;;;11.67;6.93;;;8.20;70.10;;;;;;5006166;28;20200;-76
2022/01/11 12:32:27;;;;;;;13.70;7.20;;;8.30;70.50;;;;;;5002496;28;20913;-77
2022/01/11 12:35:08;;;;;;;15.23;7.00;;;8.40;69.70;;;;;;5005125;28;20195;-76
2022/01/11 12:37:40;;;;;;;12.27;6.50;;;8.30;69.70;;;;;;5004112;28;20934;-76
2022/01/11 12:40:25;;;;;;;17.80;7.70;;;8.40;70.00;;;;;;5004817;28;20204;-77
2022/01/11 12:43:02;;;;;;;14.10;6.57;;;8.50;69.50;;;;;;4999903;28;20597;-75
2022/01/11 12:46:01;;;;;;;13.43;6.63;;;8.50;68.70;;;;;;5003372;28;20192;-77
2022/01/11 12:48:53;;;;;;;12.40;6.57;;;8.50;68.90;;;;;;5003449;28;20620;-77
2022/01/11 12:51:31;;;;;;;12.35;6.82;;;8.50;68.70;;;;;;5002141;28;20388;-77
2022/01/11 12:54:13;;;;;;;14.10;6.80;;;8.40;68.40;;;;;;5003112;28;20208;-77
2022/01/11 12:56:42;;;;;;;16.17;7.43;;;8.40;69.00;;;;;;5002562;28;20195;-77
2022/01/11 12:59:11;;;;;;;16.37;7.47;;;8.30;68.80;;;;;;5000926;28;20925;-76
2022/01/11 13:01:41;;;;;;;17.37;8.27;;;8.20;68.40;;;;;;5002260;28;20199;-76